Agua Linda, Arizona
Current Conditions -  °F | °C
As of 9:54 PM on Tuesday 25 Nov 2014 (Local Time) from KOLS Reporting Station
Clear Clear  
Wind Chill: 36°   Ceiling: Unl
Heat Index: 39°   Visibility: 10mi
Dew Point:   Wind: 5mph
Humidity: 21%   Direction: 60°ENE
Pressure: 30.33"   Gusts: NA
Location:  31.6134°N, 110.959°W
Report Text: KOLS 260454Z AUTO 06004KT 10SM CLR 04/M17 A3033 RMK AO2 SLP248 T00391167
Loading
Personal Weather Stations






























Interactive Weather Map New forecast layout! Learn more

10-Day Weather Forecast

Advertisements
Track Severe Weather on mobile